logo
Search for airport 
image banner adimage banner adimage banner ad
image banner ad

CA26 - Hall Of Justice

Located in San Francisco, United States

ICAO - CA26, IATA -

Data provided by Airmate  

General information

Coordinates: N37°46'30" W122°24'15"
Elevation is 118 feet MSL.
Magnetic variation is 16° East
View others Airports in California

Operational data

Special qualification required
Current time UTC:
Current local time:
Weather at : KOAK - Metropolitan Oakland Intl ( 17 km )
METAR: KOAK 261553Z 27005KT 10SM FEW006 OVC008 16/13 A3001 RMK AO2 SLP162 T01560128
TAF: KOAK 261137Z 2612/2718 30005KT P6SM OVC009 FM261900 29008KT P6SM SCT011 FM262200 31013KT P6SM SKC FM270400 29007KT P6SM BKN010 FM271730 29005KT P6SM FEW006 SCT012
View NOTAMs / SUP AIP / TFR affecting this airport [VIEW]
Communications frequencies: [VIEW]

Runways:

Airport contact information

Address: San Francisco United States

Satellite view of CA26